sensor_id;sensor_type;location;lat;lon;timestamp;pressure;altitude;pressure_sealevel;temperature
63158;BMP280;49381;49.338;8.794;2022-12-10T00:01:56;99182.19;;;4.78
63158;BMP280;49381;49.338;8.794;2022-12-10T00:03:56;99190.56;;;4.80
63158;BMP280;49381;49.338;8.794;2022-12-10T00:06:00;99187.25;;;4.84
63158;BMP280;49381;49.338;8.794;2022-12-10T00:08:01;99186.44;;;4.85
63158;BMP280;49381;49.338;8.794;2022-12-10T00:10:01;99185.63;;;4.87
63158;BMP280;49381;49.338;8.794;2022-12-10T00:12:02;99189.84;;;4.90
63158;BMP280;49381;49.338;8.794;2022-12-10T00:14:02;99190.63;;;4.86
63158;BMP280;49381;49.338;8.794;2022-12-10T00:16:04;99188.16;;;4.87
63158;BMP280;49381;49.338;8.794;2022-12-10T00:18:05;99183.09;;;4.86
63158;BMP280;49381;49.338;8.794;2022-12-10T00:20:06;99190.66;;;4.87
63158;BMP280;49381;49.338;8.794;2022-12-10T00:22:08;99182.28;;;4.88
63158;BMP280;49381;49.338;8.794;2022-12-10T00:24:09;99187.31;;;4.91
63158;BMP280;49381;49.338;8.794;2022-12-10T00:26:12;99187.38;;;4.93
63158;BMP280;49381;49.338;8.794;2022-12-10T00:28:13;99183.16;;;4.92
63158;BMP280;49381;49.338;8.794;2022-12-10T00:30:13;99191.56;;;4.94
63158;BMP280;49381;49.338;8.794;2022-12-10T00:32:13;99189.84;;;4.91
63158;BMP280;49381;49.338;8.794;2022-12-10T00:34:14;99185.66;;;4.89
63158;BMP280;49381;49.338;8.794;2022-12-10T00:36:16;99191.50;;;4.88
63158;BMP280;49381;49.338;8.794;2022-12-10T00:38:18;99187.31;;;4.88
63158;BMP280;49381;49.338;8.794;2022-12-10T00:40:20;99185.66;;;4.90
63158;BMP280;49381;49.338;8.794;2022-12-10T00:42:20;99194.03;;;4.91
63158;BMP280;49381;49.338;8.794;2022-12-10T00:44:21;99187.25;;;4.84
63158;BMP280;49381;49.338;8.794;2022-12-10T00:46:22;99191.44;;;4.83
63158;BMP280;49381;49.338;8.794;2022-12-10T00:48:22;99188.91;;;4.82
63158;BMP280;49381;49.338;8.794;2022-12-10T00:50:23;99187.28;;;4.87
63158;BMP280;49381;49.338;8.794;2022-12-10T00:52:23;99187.31;;;4.90
63158;BMP280;49381;49.338;8.794;2022-12-10T00:54:25;99190.66;;;4.90
63158;BMP280;49381;49.338;8.794;2022-12-10T00:56:27;99194.00;;;4.88
63158;BMP280;49381;49.338;8.794;2022-12-10T00:58:30;99202.31;;;4.84
63158;BMP280;49381;49.338;8.794;2022-12-10T01:00:30;99203.94;;;4.79
63158;BMP280;49381;49.338;8.794;2022-12-10T01:02:31;99204.72;;;4.75
63158;BMP280;49381;49.338;8.794;2022-12-10T01:04:31;99203.88;;;4.73
63158;BMP280;49381;49.338;8.794;2022-12-10T01:06:33;99199.69;;;4.74
63158;BMP280;49381;49.338;8.794;2022-12-10T01:08:34;99198.81;;;4.72
63158;BMP280;49381;49.338;8.794;2022-12-10T01:10:36;99208.00;;;4.68
63158;BMP280;49381;49.338;8.794;2022-12-10T01:12:36;99208.84;;;4.70
63158;BMP280;49381;49.338;8.794;2022-12-10T01:14:36;99212.25;;;4.76
63158;BMP280;49381;49.338;8.794;2022-12-10T01:16:37;99218.16;;;4.80
63158;BMP280;49381;49.338;8.794;2022-12-10T01:18:37;99217.34;;;4.81
63158;BMP280;49381;49.338;8.794;2022-12-10T01:20:38;99218.94;;;4.76
63158;BMP280;49381;49.338;8.794;2022-12-10T01:22:38;99221.44;;;4.75
63158;BMP280;49381;49.338;8.794;2022-12-10T01:24:38;99223.06;;;4.71
63158;BMP280;49381;49.338;8.794;2022-12-10T01:26:40;99223.97;;;4.76
63158;BMP280;49381;49.338;8.794;2022-12-10T01:28:41;99226.53;;;4.80
63158;BMP280;49381;49.338;8.794;2022-12-10T01:30:42;99229.06;;;4.82
63158;BMP280;49381;49.338;8.794;2022-12-10T01:32:42;99224.84;;;4.79
63158;BMP280;49381;49.338;8.794;2022-12-10T01:34:42;99234.00;;;4.76
63158;BMP280;49381;49.338;8.794;2022-12-10T01:36:44;99230.72;;;4.80
63158;BMP280;49381;49.338;8.794;2022-12-10T01:38:45;99223.19;;;4.80
63158;BMP280;49381;49.338;8.794;2022-12-10T01:40:46;99231.63;;;4.85
63158;BMP280;49381;49.338;8.794;2022-12-10T01:42:47;99225.75;;;4.86
63158;BMP280;49381;49.338;8.794;2022-12-10T01:45:07;99228.25;;;4.83
63158;BMP280;49381;49.338;8.794;2022-12-10T01:47:08;99240.81;;;4.83
63158;BMP280;49381;49.338;8.794;2022-12-10T01:49:11;99234.13;;;4.85
63158;BMP280;49381;49.338;8.794;2022-12-10T01:51:13;99239.19;;;4.89
63158;BMP280;49381;49.338;8.794;2022-12-10T01:53:14;99238.31;;;4.86
63158;BMP280;49381;49.338;8.794;2022-12-10T01:55:44;99240.72;;;4.77
63158;BMP280;49381;49.338;8.794;2022-12-10T01:57:45;99253.25;;;4.75
63158;BMP280;49381;49.338;8.794;2022-12-10T01:59:50;99251.63;;;4.79
63158;BMP280;49381;49.338;8.794;2022-12-10T02:01:56;99242.47;;;4.82
63158;BMP280;49381;49.338;8.794;2022-12-10T02:04:09;99257.56;;;4.84
63158;BMP280;49381;49.338;8.794;2022-12-10T02:06:22;99250.81;;;4.80
63158;BMP280;49381;49.338;8.794;2022-12-10T02:08:27;99265.81;;;4.75
63158;BMP280;49381;49.338;8.794;2022-12-10T02:10:41;99260.72;;;4.71
63158;BMP280;49381;49.338;8.794;2022-12-10T02:12:47;99257.31;;;4.66
63158;BMP280;49381;49.338;8.794;2022-12-10T02:14:54;99261.50;;;4.67
63158;BMP280;49381;49.338;8.794;2022-12-10T02:16:57;99263.22;;;4.70
63158;BMP280;49381;49.338;8.794;2022-12-10T02:19:03;99270.81;;;4.74
63158;BMP280;49381;49.338;8.794;2022-12-10T02:21:10;99253.25;;;4.75
63158;BMP280;49381;49.338;8.794;2022-12-10T02:23:16;99258.16;;;4.65
63158;BMP280;49381;49.338;8.794;2022-12-10T02:25:23;99260.59;;;4.61
63158;BMP280;49381;49.338;8.794;2022-12-10T02:27:29;99260.63;;;4.62
63158;BMP280;49381;49.338;8.794;2022-12-10T02:29:33;99258.13;;;4.64
63158;BMP280;49381;49.338;8.794;2022-12-10T02:31:35;99257.38;;;4.72
63158;BMP280;49381;49.338;8.794;2022-12-10T02:33:39;99252.38;;;4.72
63158;BMP280;49381;49.338;8.794;2022-12-10T02:35:41;99243.16;;;4.71
63158;BMP280;49381;49.338;8.794;2022-12-10T02:37:45;99248.16;;;4.70
63158;BMP280;49381;49.338;8.794;2022-12-10T02:39:49;99250.66;;;4.68
63158;BMP280;49381;49.338;8.794;2022-12-10T02:41:53;99246.38;;;4.61
63158;BMP280;49381;49.338;8.794;2022-12-10T02:43:55;99242.25;;;4.63
63158;BMP280;49381;49.338;8.794;2022-12-10T02:46:02;99235.56;;;4.65
63158;BMP280;49381;49.338;8.794;2022-12-10T02:48:04;99236.34;;;4.61
63158;BMP280;49381;49.338;8.794;2022-12-10T02:50:06;99234.66;;;4.59
63158;BMP280;49381;49.338;8.794;2022-12-10T02:52:09;99217.97;;;4.62
63158;BMP280;49381;49.338;8.794;2022-12-10T02:54:34;99233.81;;;4.61
63158;BMP280;49381;49.338;8.794;2022-12-10T02:56:40;99226.28;;;4.58
63158;BMP280;49381;49.338;8.794;2022-12-10T02:58:49;99229.69;;;4.63
63158;BMP280;49381;49.338;8.794;2022-12-10T03:01:01;99218.81;;;4.63
63158;BMP280;49381;49.338;8.794;2022-12-10T03:03:14;99229.66;;;4.62
63158;BMP280;49381;49.338;8.794;2022-12-10T03:05:20;99220.47;;;4.62
63158;BMP280;49381;49.338;8.794;2022-12-10T03:07:25;99228.00;;;4.62
63158;BMP280;49381;49.338;8.794;2022-12-10T03:09:32;99234.66;;;4.59
63158;BMP280;49381;49.338;8.794;2022-12-10T03:11:35;99228.81;;;4.60
63158;BMP280;49381;49.338;8.794;2022-12-10T03:13:39;99228.72;;;4.52
63158;BMP280;49381;49.338;8.794;2022-12-10T03:15:41;99231.19;;;4.51
63158;BMP280;49381;49.338;8.794;2022-12-10T03:17:44;99229.56;;;4.56
63158;BMP280;49381;49.338;8.794;2022-12-10T03:19:48;99237.16;;;4.57
63158;BMP280;49381;49.338;8.794;2022-12-10T03:21:51;99220.47;;;4.62
63158;BMP280;49381;49.338;8.794;2022-12-10T03:23:52;99222.22;;;4.68
63158;BMP280;49381;49.338;8.794;2022-12-10T03:25:53;99229.72;;;4.66
63158;BMP280;49381;49.338;8.794;2022-12-10T03:27:55;99218.00;;;4.67
63158;BMP280;49381;49.338;8.794;2022-12-10T03:29:57;99223.78;;;4.61
63158;BMP280;49381;49.338;8.794;2022-12-10T03:31:58;99212.91;;;4.59
63158;BMP280;49381;49.338;8.794;2022-12-10T03:34:01;99212.91;;;4.59
63158;BMP280;49381;49.338;8.794;2022-12-10T03:36:03;99212.00;;;4.56
63158;BMP280;49381;49.338;8.794;2022-12-10T03:38:03;99216.19;;;4.54
63158;BMP280;49381;49.338;8.794;2022-12-10T03:40:05;99214.50;;;4.54
63158;BMP280;49381;49.338;8.794;2022-12-10T03:42:06;99214.47;;;4.51
63158;BMP280;49381;49.338;8.794;2022-12-10T03:44:07;99219.53;;;4.54
63158;BMP280;49381;49.338;8.794;2022-12-10T03:46:07;99217.03;;;4.56
63158;BMP280;49381;49.338;8.794;2022-12-10T03:48:07;99209.50;;;4.56
63158;BMP280;49381;49.338;8.794;2022-12-10T03:50:10;99222.06;;;4.56
63158;BMP280;49381;49.338;8.794;2022-12-10T03:52:11;99223.59;;;4.47
63158;BMP280;49381;49.338;8.794;2022-12-10T03:54:11;99216.88;;;4.43
63158;BMP280;49381;49.338;8.794;2022-12-10T03:56:11;99229.34;;;4.38
63158;BMP280;49381;49.338;8.794;2022-12-10T03:58:12;99226.88;;;4.41
63158;BMP280;49381;49.338;8.794;2022-12-10T04:00:12;99230.28;;;4.45
63158;BMP280;49381;49.338;8.794;2022-12-10T04:02:13;99235.34;;;4.48
63158;BMP280;49381;49.338;8.794;2022-12-10T04:04:13;99227.84;;;4.52
63158;BMP280;49381;49.338;8.794;2022-12-10T04:06:17;99231.19;;;4.51
63158;BMP280;49381;49.338;8.794;2022-12-10T04:08:18;99232.78;;;4.46
63158;BMP280;49381;49.338;8.794;2022-12-10T04:10:19;99230.34;;;4.50
63158;BMP280;49381;49.338;8.794;2022-12-10T04:12:19;99231.25;;;4.54
63158;BMP280;49381;49.338;8.794;2022-12-10T04:14:19;99237.94;;;4.56
63158;BMP280;49381;49.338;8.794;2022-12-10T04:16:20;99240.44;;;4.56
63158;BMP280;49381;49.338;8.794;2022-12-10T04:18:20;99237.94;;;4.56
63158;BMP280;49381;49.338;8.794;2022-12-10T04:20:21;99239.66;;;4.59
63158;BMP280;49381;49.338;8.794;2022-12-10T04:22:22;99240.56;;;4.64
63158;BMP280;49381;49.338;8.794;2022-12-10T04:24:24;99244.75;;;4.66
63158;BMP280;49381;49.338;8.794;2022-12-10T04:26:25;99247.25;;;4.65
63158;BMP280;49381;49.338;8.794;2022-12-10T04:28:25;99247.19;;;4.60
63158;BMP280;49381;49.338;8.794;2022-12-10T04:30:26;99238.91;;;4.64
63158;BMP280;49381;49.338;8.794;2022-12-10T04:32:28;99248.16;;;4.70
63158;BMP280;49381;49.338;8.794;2022-12-10T04:34:28;99248.94;;;4.64
63158;BMP280;49381;49.338;8.794;2022-12-10T04:36:29;99248.03;;;4.58
63158;BMP280;49381;49.338;8.794;2022-12-10T04:38:30;99249.56;;;4.49
63158;BMP280;49381;49.338;8.794;2022-12-10T04:40:31;99252.78;;;4.42
63158;BMP280;49381;49.338;8.794;2022-12-10T04:42:31;99253.75;;;4.50
63158;BMP280;49381;49.338;8.794;2022-12-10T04:44:32;99258.00;;;4.55
63158;BMP280;49381;49.338;8.794;2022-12-10T04:46:33;99253.84;;;4.55
63158;BMP280;49381;49.338;8.794;2022-12-10T04:48:33;99252.19;;;4.57
63158;BMP280;49381;49.338;8.794;2022-12-10T04:50:33;99254.72;;;4.60
63158;BMP280;49381;49.338;8.794;2022-12-10T04:52:34;99257.16;;;4.54
63158;BMP280;49381;49.338;8.794;2022-12-10T04:54:35;99254.75;;;4.62
63158;BMP280;49381;49.338;8.794;2022-12-10T04:56:36;99254.75;;;4.62
63158;BMP280;49381;49.338;8.794;2022-12-10T04:58:36;99263.94;;;4.61
63158;BMP280;49381;49.338;8.794;2022-12-10T05:00:37;99257.22;;;4.57
63158;BMP280;49381;49.338;8.794;2022-12-10T05:02:37;99259.75;;;4.59
63158;BMP280;49381;49.338;8.794;2022-12-10T05:04:37;99252.16;;;4.54
63158;BMP280;49381;49.338;8.794;2022-12-10T05:06:38;99245.44;;;4.53
63158;BMP280;49381;49.338;8.794;2022-12-10T05:08:39;99259.69;;;4.54
63158;BMP280;49381;49.338;8.794;2022-12-10T05:10:41;99260.53;;;4.56
63158;BMP280;49381;49.338;8.794;2022-12-10T05:12:42;99261.34;;;4.52
63158;BMP280;49381;49.338;8.794;2022-12-10T05:14:42;99268.88;;;4.52
63158;BMP280;49381;49.338;8.794;2022-12-10T05:16:43;99273.91;;;4.55
63158;BMP280;49381;49.338;8.794;2022-12-10T05:18:43;99273.06;;;4.53
63158;BMP280;49381;49.338;8.794;2022-12-10T05:20:44;99273.91;;;4.55
63158;BMP280;49381;49.338;8.794;2022-12-10T05:22:44;99276.41;;;4.57
63158;BMP280;49381;49.338;8.794;2022-12-10T05:24:45;99277.28;;;4.57
63158;BMP280;49381;49.338;8.794;2022-12-10T05:26:46;99284.84;;;4.59
63158;BMP280;49381;49.338;8.794;2022-12-10T05:28:48;99280.59;;;4.55
63158;BMP280;49381;49.338;8.794;2022-12-10T05:30:49;99288.13;;;4.56
63158;BMP280;49381;49.338;8.794;2022-12-10T05:32:49;99284.81;;;4.57
63158;BMP280;49381;49.338;8.794;2022-12-10T05:34:49;99289.84;;;4.59
63158;BMP280;49381;49.338;8.794;2022-12-10T05:36:50;99295.66;;;4.56
63158;BMP280;49381;49.338;8.794;2022-12-10T05:38:50;99287.34;;;4.60
63158;BMP280;49381;49.338;8.794;2022-12-10T05:40:51;99287.22;;;4.51
63158;BMP280;49381;49.338;8.794;2022-12-10T05:42:53;99288.88;;;4.50
63158;BMP280;49381;49.338;8.794;2022-12-10T05:44:53;99292.16;;;4.44
63158;BMP280;49381;49.338;8.794;2022-12-10T05:46:54;99295.41;;;4.39
63158;BMP280;49381;49.338;8.794;2022-12-10T05:48:54;99298.69;;;4.35
63158;BMP280;49381;49.338;8.794;2022-12-10T05:50:55;99307.00;;;4.31
63158;BMP280;49381;49.338;8.794;2022-12-10T05:52:55;99301.13;;;4.29
63158;BMP280;49381;49.338;8.794;2022-12-10T05:54:56;99307.00;;;4.32
63158;BMP280;49381;49.338;8.794;2022-12-10T05:56:56;99302.78;;;4.28
63158;BMP280;49381;49.338;8.794;2022-12-10T05:59:00;99299.53;;;4.35
63158;BMP280;49381;49.338;8.794;2022-12-10T06:01:05;99298.75;;;4.38
63158;BMP280;49381;49.338;8.794;2022-12-10T06:03:07;99300.44;;;4.39
63158;BMP280;49381;49.338;8.794;2022-12-10T06:05:08;99305.47;;;4.39
63158;BMP280;49381;49.338;8.794;2022-12-10T06:07:08;99315.44;;;4.37
63158;BMP280;49381;49.338;8.794;2022-12-10T06:09:12;99310.41;;;4.34
63158;BMP280;49381;49.338;8.794;2022-12-10T06:11:12;99309.56;;;4.34
63158;BMP280;49381;49.338;8.794;2022-12-10T06:13:13;99308.75;;;4.36
63158;BMP280;49381;49.338;8.794;2022-12-10T06:15:14;99310.44;;;4.37
63158;BMP280;49381;49.338;8.794;2022-12-10T06:17:15;99316.31;;;4.39
63158;BMP280;49381;49.338;8.794;2022-12-10T06:19:15;99311.31;;;4.41
63158;BMP280;49381;49.338;8.794;2022-12-10T06:21:16;99305.53;;;4.45
63158;BMP280;49381;49.338;8.794;2022-12-10T06:23:17;99320.66;;;4.48
63158;BMP280;49381;49.338;8.794;2022-12-10T06:25:17;99313.13;;;4.48
63158;BMP280;49381;49.338;8.794;2022-12-10T06:27:18;99324.00;;;4.50
63158;BMP280;49381;49.338;8.794;2022-12-10T06:29:18;99326.47;;;4.47
63158;BMP280;49381;49.338;8.794;2022-12-10T06:31:20;99324.72;;;4.41
63158;BMP280;49381;49.338;8.794;2022-12-10T06:33:20;99337.31;;;4.44
63158;BMP280;49381;49.338;8.794;2022-12-10T06:35:20;99330.56;;;4.42
63158;BMP280;49381;49.338;8.794;2022-12-10T06:37:21;99329.78;;;4.43
63158;BMP280;49381;49.338;8.794;2022-12-10T06:39:21;99334.75;;;4.41
63158;BMP280;49381;49.338;8.794;2022-12-10T06:41:21;99328.94;;;4.44
63158;BMP280;49381;49.338;8.794;2022-12-10T06:43:22;99333.91;;;4.42
63158;BMP280;49381;49.338;8.794;2022-12-10T06:45:22;99340.66;;;4.45
63158;BMP280;49381;49.338;8.794;2022-12-10T06:47:24;99332.28;;;4.43
63158;BMP280;49381;49.338;8.794;2022-12-10T06:49:24;99342.25;;;4.40
63158;BMP280;49381;49.338;8.794;2022-12-10T06:51:24;99340.59;;;4.40
63158;BMP280;49381;49.338;8.794;2022-12-10T06:53:25;99335.59;;;4.42
63158;BMP280;49381;49.338;8.794;2022-12-10T06:55:25;99347.28;;;4.40
63158;BMP280;49381;49.338;8.794;2022-12-10T06:57:26;99343.91;;;4.38
63158;BMP280;49381;49.338;8.794;2022-12-10T06:59:26;99336.41;;;4.39
63158;BMP280;49381;49.338;8.794;2022-12-10T07:01:26;99341.44;;;4.41
63158;BMP280;49381;49.338;8.794;2022-12-10T07:03:28;99339.75;;;4.40
63158;BMP280;49381;49.338;8.794;2022-12-10T07:05:28;99343.09;;;4.39
63158;BMP280;49381;49.338;8.794;2022-12-10T07:07:28;99338.91;;;4.41
63158;BMP280;49381;49.338;8.794;2022-12-10T07:09:29;99339.84;;;4.46
63158;BMP280;49381;49.338;8.794;2022-12-10T07:11:29;99337.31;;;4.46
63158;BMP280;49381;49.338;8.794;2022-12-10T07:13:30;99351.56;;;4.47
63158;BMP280;49381;49.338;8.794;2022-12-10T07:15:31;99345.69;;;4.46
63158;BMP280;49381;49.338;8.794;2022-12-10T07:17:31;99349.84;;;4.43
63158;BMP280;49381;49.338;8.794;2022-12-10T07:19:32;99355.66;;;4.42
63158;BMP280;49381;49.338;8.794;2022-12-10T07:21:34;99356.53;;;4.44
63158;BMP280;49381;49.338;8.794;2022-12-10T07:23:35;99359.84;;;4.41
63158;BMP280;49381;49.338;8.794;2022-12-10T07:25:35;99357.28;;;4.38
63158;BMP280;49381;49.338;8.794;2022-12-10T07:27:36;99363.09;;;4.36
63158;BMP280;49381;49.338;8.794;2022-12-10T07:29:36;99368.94;;;4.36
63158;BMP280;49381;49.338;8.794;2022-12-10T07:31:36;99363.97;;;4.38
63158;BMP280;49381;49.338;8.794;2022-12-10T07:33:37;99370.69;;;4.39
63158;BMP280;49381;49.338;8.794;2022-12-10T07:35:39;99364.84;;;4.41
63158;BMP280;49381;49.338;8.794;2022-12-10T07:37:39;99372.34;;;4.40
63158;BMP280;49381;49.338;8.794;2022-12-10T07:39:39;99372.34;;;4.40
63158;BMP280;49381;49.338;8.794;2022-12-10T07:41:40;99374.03;;;4.38
63158;BMP280;49381;49.338;8.794;2022-12-10T07:43:42;99374.78;;;4.35
63158;BMP280;49381;49.338;8.794;2022-12-10T07:45:43;99379.06;;;4.41
63158;BMP280;49381;49.338;8.794;2022-12-10T07:47:43;99369.91;;;4.43
63158;BMP280;49381;49.338;8.794;2022-12-10T07:49:43;99371.53;;;4.41
63158;BMP280;49381;49.338;8.794;2022-12-10T07:51:45;99376.63;;;4.44
63158;BMP280;49381;49.338;8.794;2022-12-10T07:53:46;99377.44;;;4.43
63158;BMP280;49381;49.338;8.794;2022-12-10T07:55:46;99384.97;;;4.43
63158;BMP280;49381;49.338;8.794;2022-12-10T07:57:47;99383.28;;;4.43
63158;BMP280;49381;49.338;8.794;2022-12-10T07:59:47;99388.31;;;4.45
63158;BMP280;49381;49.338;8.794;2022-12-10T08:01:47;99393.34;;;4.46
63158;BMP280;49381;49.338;8.794;2022-12-10T08:03:48;99389.97;;;4.43
63158;BMP280;49381;49.338;8.794;2022-12-10T08:05:48;99400.81;;;4.42
63158;BMP280;49381;49.338;8.794;2022-12-10T08:07:50;99392.53;;;4.46
63158;BMP280;49381;49.338;8.794;2022-12-10T08:09:50;99396.63;;;4.42
63158;BMP280;49381;49.338;8.794;2022-12-10T08:11:52;99394.13;;;4.41
63158;BMP280;49381;49.338;8.794;2022-12-10T08:13:53;99401.69;;;4.44
63158;BMP280;49381;49.338;8.794;2022-12-10T08:15:53;99405.06;;;4.47
63158;BMP280;49381;49.338;8.794;2022-12-10T08:17:54;99409.31;;;4.50
63158;BMP280;49381;49.338;8.794;2022-12-10T08:19:54;99407.56;;;4.46
63158;BMP280;49381;49.338;8.794;2022-12-10T08:21:54;99407.56;;;4.44
63158;BMP280;49381;49.338;8.794;2022-12-10T08:23:56;99406.72;;;4.44
63158;BMP280;49381;49.338;8.794;2022-12-10T08:25:57;99405.88;;;4.45
63158;BMP280;49381;49.338;8.794;2022-12-10T08:27:57;99408.47;;;4.48
63158;BMP280;49381;49.338;8.794;2022-12-10T08:29:58;99405.19;;;4.53
63158;BMP280;49381;49.338;8.794;2022-12-10T08:31:58;99402.69;;;4.53
63158;BMP280;49381;49.338;8.794;2022-12-10T08:33:58;99395.16;;;4.53
63158;BMP280;49381;49.338;8.794;2022-12-10T08:35:59;99405.28;;;4.57
63158;BMP280;49381;49.338;8.794;2022-12-10T08:37:59;99406.19;;;4.64
63158;BMP280;49381;49.338;8.794;2022-12-10T08:40:01;99400.41;;;4.68
63158;BMP280;49381;49.338;8.794;2022-12-10T08:42:02;99405.44;;;4.68
63158;BMP280;49381;49.338;8.794;2022-12-10T08:44:02;99409.63;;;4.70
63158;BMP280;49381;49.338;8.794;2022-12-10T08:46:03;99403.78;;;4.70
63158;BMP280;49381;49.338;8.794;2022-12-10T08:48:03;99401.97;;;4.61
63158;BMP280;49381;49.338;8.794;2022-12-10T08:50:04;99409.56;;;4.67
63158;BMP280;49381;49.338;8.794;2022-12-10T08:52:05;99404.69;;;4.76
63158;BMP280;49381;49.338;8.794;2022-12-10T08:54:05;99408.09;;;4.79
63158;BMP280;49381;49.338;8.794;2022-12-10T08:56:07;99409.81;;;4.82
63158;BMP280;49381;49.338;8.794;2022-12-10T08:58:08;99405.66;;;4.84
63158;BMP280;49381;49.338;8.794;2022-12-10T09:00:10;99412.38;;;4.86
63158;BMP280;49381;49.338;8.794;2022-12-10T09:02:11;99413.22;;;4.87
63158;BMP280;49381;49.338;8.794;2022-12-10T09:04:11;99412.44;;;4.88
63158;BMP280;49381;49.338;8.794;2022-12-10T09:06:14;99413.13;;;4.81
63158;BMP280;49381;49.338;8.794;2022-12-10T09:08:14;99414.78;;;4.77
63158;BMP280;49381;49.338;8.794;2022-12-10T09:10:15;99407.13;;;4.70
63158;BMP280;49381;49.338;8.794;2022-12-10T09:12:16;99409.63;;;4.70
63158;BMP280;49381;49.338;8.794;2022-12-10T09:14:17;99409.69;;;4.73
63158;BMP280;49381;49.338;8.794;2022-12-10T09:16:18;99410.50;;;4.72
63158;BMP280;49381;49.338;8.794;2022-12-10T09:18:18;99416.41;;;4.77
63158;BMP280;49381;49.338;8.794;2022-12-10T09:20:19;99428.06;;;4.72
63158;BMP280;49381;49.338;8.794;2022-12-10T09:22:19;99422.94;;;4.65
63158;BMP280;49381;49.338;8.794;2022-12-10T09:24:20;99418.00;;;4.69
63158;BMP280;49381;49.338;8.794;2022-12-10T09:26:20;99422.94;;;4.66
63158;BMP280;49381;49.338;8.794;2022-12-10T09:28:22;99424.69;;;4.70
63158;BMP280;49381;49.338;8.794;2022-12-10T09:30:22;99425.53;;;4.72
63158;BMP280;49381;49.338;8.794;2022-12-10T09:32:23;99423.03;;;4.72
63158;BMP280;49381;49.338;8.794;2022-12-10T09:34:23;99428.03;;;4.71
63158;BMP280;49381;49.338;8.794;2022-12-10T09:36:23;99437.97;;;4.63
63158;BMP280;49381;49.338;8.794;2022-12-10T09:38:24;99432.91;;;4.62
63158;BMP280;49381;49.338;8.794;2022-12-10T09:40:32;99432.97;;;4.63
63158;BMP280;49381;49.338;8.794;2022-12-10T09:42:43;99438.00;;;4.66
63158;BMP280;49381;49.338;8.794;2022-12-10T09:44:53;99437.94;;;4.62
63158;BMP280;49381;49.338;8.794;2022-12-10T09:46:58;99435.53;;;4.68
63158;BMP280;49381;49.338;8.794;2022-12-10T09:49:04;99436.34;;;4.65
63158;BMP280;49381;49.338;8.794;2022-12-10T09:51:11;99437.84;;;4.56
63158;BMP280;49381;49.338;8.794;2022-12-10T09:53:14;99438.75;;;4.58
63158;BMP280;49381;49.338;8.794;2022-12-10T09:55:19;99442.00;;;4.54
63158;BMP280;49381;49.338;8.794;2022-12-10T09:57:22;99430.16;;;4.46
63158;BMP280;49381;49.338;8.794;2022-12-10T09:59:29;99436.91;;;4.50
63158;BMP280;49381;49.338;8.794;2022-12-10T10:01:32;99436.09;;;4.50
63158;BMP280;49381;49.338;8.794;2022-12-10T10:03:37;99432.56;;;4.40
63158;BMP280;49381;49.338;8.794;2022-12-10T10:05:40;99431.66;;;4.36
63158;BMP280;49381;49.338;8.794;2022-12-10T10:07:43;99435.16;;;4.46
63158;BMP280;49381;49.338;8.794;2022-12-10T10:09:44;99437.59;;;4.40
63158;BMP280;49381;49.338;8.794;2022-12-10T10:11:45;99444.19;;;4.35
63158;BMP280;49381;49.338;8.794;2022-12-10T10:13:49;99439.94;;;4.32
63158;BMP280;49381;49.338;8.794;2022-12-10T10:15:52;99442.53;;;4.37
63158;BMP280;49381;49.338;8.794;2022-12-10T10:17:55;99449.06;;;4.26
63158;BMP280;49381;49.338;8.794;2022-12-10T10:19:56;99453.91;;;4.17
63158;BMP280;49381;49.338;8.794;2022-12-10T10:21:57;99452.97;;;4.12
63158;BMP280;49381;49.338;8.794;2022-12-10T10:23:58;99459.69;;;4.13
63158;BMP280;49381;49.338;8.794;2022-12-10T10:25:59;99467.22;;;4.13
63158;BMP280;49381;49.338;8.794;2022-12-10T10:27:59;99458.88;;;4.14
63158;BMP280;49381;49.338;8.794;2022-12-10T10:30:00;99463.97;;;4.19
63158;BMP280;49381;49.338;8.794;2022-12-10T10:32:14;99447.31;;;4.22
63158;BMP280;49381;49.338;8.794;2022-12-10T10:34:18;99452.28;;;4.19
63158;BMP280;49381;49.338;8.794;2022-12-10T10:36:22;99452.38;;;4.24
63158;BMP280;49381;49.338;8.794;2022-12-10T10:38:26;99463.28;;;4.27
63158;BMP280;49381;49.338;8.794;2022-12-10T10:40:30;99455.81;;;4.30
63158;BMP280;49381;49.338;8.794;2022-12-10T10:42:35;99457.50;;;4.32
63158;BMP280;49381;49.338;8.794;2022-12-10T10:44:37;99461.78;;;4.36
63158;BMP280;49381;49.338;8.794;2022-12-10T10:46:38;99459.44;;;4.47
63158;BMP280;49381;49.338;8.794;2022-12-10T10:48:39;99455.25;;;4.46
63158;BMP280;49381;49.338;8.794;2022-12-10T10:50:43;99463.69;;;4.50
63158;BMP280;49381;49.338;8.794;2022-12-10T10:52:44;99461.94;;;4.45
63158;BMP280;49381;49.338;8.794;2022-12-10T10:54:45;99462.94;;;4.54
63158;BMP280;49381;49.338;8.794;2022-12-10T10:56:45;99462.03;;;4.51
63158;BMP280;49381;49.338;8.794;2022-12-10T10:58:51;99468.69;;;4.49
63158;BMP280;49381;49.338;8.794;2022-12-10T11:00:54;99469.69;;;4.58
63158;BMP280;49381;49.338;8.794;2022-12-10T11:02:57;99464.59;;;4.52
63158;BMP280;49381;49.338;8.794;2022-12-10T11:05:04;99464.31;;;4.38
63158;BMP280;49381;49.338;8.794;2022-12-10T11:07:16;99476.25;;;4.50
63158;BMP280;49381;49.338;8.794;2022-12-10T11:09:21;99472.88;;;4.50
63158;BMP280;49381;49.338;8.794;2022-12-10T11:11:32;99469.78;;;4.64
63158;BMP280;49381;49.338;8.794;2022-12-10T11:13:34;99471.53;;;4.68
63158;BMP280;49381;49.338;8.794;2022-12-10T11:15:36;99468.00;;;4.57
63158;BMP280;49381;49.338;8.794;2022-12-10T11:17:46;99466.34;;;4.58
63158;BMP280;49381;49.338;8.794;2022-12-10T11:19:54;99466.53;;;4.71
63158;BMP280;49381;49.338;8.794;2022-12-10T11:22:16;99463.91;;;4.64
63158;BMP280;49381;49.338;8.794;2022-12-10T11:24:18;99472.97;;;4.54
63158;BMP280;49381;49.338;8.794;2022-12-10T11:26:30;99470.38;;;4.49
63158;BMP280;49381;49.338;8.794;2022-12-10T11:28:43;99467.94;;;4.54
63158;BMP280;49381;49.338;8.794;2022-12-10T11:30:52;99471.44;;;4.64
63158;BMP280;49381;49.338;8.794;2022-12-10T11:33:03;99470.63;;;4.65
63158;BMP280;49381;49.338;8.794;2022-12-10T11:35:12;99469.81;;;4.67
63158;BMP280;49381;49.338;8.794;2022-12-10T11:37:21;99463.16;;;4.69
63158;BMP280;49381;49.338;8.794;2022-12-10T11:39:35;99469.94;;;4.73
63158;BMP280;49381;49.338;8.794;2022-12-10T11:41:46;99465.00;;;4.79
63158;BMP280;49381;49.338;8.794;2022-12-10T11:46:20;99457.53;;;4.83
63158;BMP280;49381;49.338;8.794;2022-12-10T11:48:33;99477.50;;;4.76
63158;BMP280;49381;49.338;8.794;2022-12-10T11:50:40;99474.97;;;4.76
63158;BMP280;49381;49.338;8.794;2022-12-10T11:52:55;99465.00;;;4.79
63158;BMP280;49381;49.338;8.794;2022-12-10T11:55:02;99474.28;;;4.84
63158;BMP280;49381;49.338;8.794;2022-12-10T11:57:09;99469.41;;;4.93
63158;BMP280;49381;49.338;8.794;2022-12-10T11:59:18;99465.19;;;4.91